sensor_id;sensor_type;location;lat;lon;timestamp;pressure;altitude;pressure_sealevel;temperature;humidity
25658;BME280;13517;59.320;18.042;2022-10-31T00:00:57;101280.66;;;3.13;100.00
25658;BME280;13517;59.320;18.042;2022-10-31T00:03:22;101280.66;;;3.13;100.00
25658;BME280;13517;59.320;18.042;2022-10-31T00:05:49;101282.44;;;3.13;100.00
25658;BME280;13517;59.320;18.042;2022-10-31T00:08:15;101274.44;;;3.13;100.00
25658;BME280;13517;59.320;18.042;2022-10-31T00:10:41;101271.72;;;3.15;100.00
25658;BME280;13517;59.320;18.042;2022-10-31T00:13:08;101269.88;;;3.17;100.00
25658;BME280;13517;59.320;18.042;2022-10-31T00:15:37;101246.09;;;3.07;100.00
25658;BME280;13517;59.320;18.042;2022-10-31T00:18:04;101258.34;;;3.16;100.00
25658;BME280;13517;59.320;18.042;2022-10-31T00:20:30;101236.50;;;3.00;100.00
25658;BME280;13517;59.320;18.042;2022-10-31T00:23:00;101252.41;;;3.03;100.00
25658;BME280;13517;59.320;18.042;2022-10-31T00:25:26;101252.94;;;3.18;100.00
25658;BME280;13517;59.320;18.042;2022-10-31T00:27:52;101251.19;;;3.17;100.00
25658;BME280;13517;59.320;18.042;2022-10-31T00:30:18;101234.59;;;3.05;100.00
25658;BME280;13517;59.320;18.042;2022-10-31T00:32:43;101238.94;;;3.09;100.00
25658;BME280;13517;59.320;18.042;2022-10-31T00:35:08;101255.63;;;3.18;100.00
25658;BME280;13517;59.320;18.042;2022-10-31T00:37:34;101225.72;;;3.03;100.00
25658;BME280;13517;59.320;18.042;2022-10-31T00:39:59;101226.78;;;2.97;100.00
25658;BME280;13517;59.320;18.042;2022-10-31T00:42:25;101210.94;;;2.90;100.00
25658;BME280;13517;59.320;18.042;2022-10-31T00:44:50;101245.19;;;3.08;100.00
25658;BME280;13517;59.320;18.042;2022-10-31T00:47:15;101260.91;;;3.21;100.00
25658;BME280;13517;59.320;18.042;2022-10-31T00:49:41;101238.00;;;3.10;100.00
25658;BME280;13517;59.320;18.042;2022-10-31T00:52:06;101252.09;;;3.17;100.00
25658;BME280;13517;59.320;18.042;2022-10-31T00:54:32;101227.72;;;2.95;100.00
25658;BME280;13517;59.320;18.042;2022-10-31T00:56:57;101234.66;;;3.02;100.00
25658;BME280;13517;59.320;18.042;2022-10-31T00:59:23;101253.97;;;3.13;100.00
25658;BME280;13517;59.320;18.042;2022-10-31T01:01:48;101259.19;;;3.18;100.00
25658;BME280;13517;59.320;18.042;2022-10-31T01:04:14;101255.72;;;3.15;100.00
25658;BME280;13517;59.320;18.042;2022-10-31T01:06:39;101240.69;;;3.10;100.00
25658;BME280;13517;59.320;18.042;2022-10-31T01:09:04;101245.97;;;3.12;100.00
25658;BME280;13517;59.320;18.042;2022-10-31T01:11:30;101250.28;;;3.18;100.00
25658;BME280;13517;59.320;18.042;2022-10-31T01:13:55;101231.00;;;3.06;100.00
25658;BME280;13517;59.320;18.042;2022-10-31T01:16:24;101206.47;;;2.92;100.00
25658;BME280;13517;59.320;18.042;2022-10-31T01:18:51;101236.19;;;3.12;100.00
25658;BME280;13517;59.320;18.042;2022-10-31T01:21:22;101245.69;;;3.24;100.00
25658;BME280;13517;59.320;18.042;2022-10-31T01:23:48;101243.84;;;3.26;100.00
25658;BME280;13517;59.320;18.042;2022-10-31T01:26:22;101232.34;;;3.23;100.00
25658;BME280;13517;59.320;18.042;2022-10-31T01:28:49;101248.38;;;3.23;100.00
25658;BME280;13517;59.320;18.042;2022-10-31T01:31:16;101230.59;;;3.22;100.00
25658;BME280;13517;59.320;18.042;2022-10-31T01:33:42;101232.25;;;3.26;100.00
25658;BME280;13517;59.320;18.042;2022-10-31T01:36:28;101229.53;;;3.29;100.00
25658;BME280;13517;59.320;18.042;2022-10-31T01:38:56;101218.09;;;3.24;100.00
25658;BME280;13517;59.320;18.042;2022-10-31T01:41:28;101220.75;;;3.24;100.00
25658;BME280;13517;59.320;18.042;2022-10-31T01:43:59;101220.69;;;3.27;100.00
25658;BME280;13517;59.320;18.042;2022-10-31T01:46:33;101237.53;;;3.29;100.00
25658;BME280;13517;59.320;18.042;2022-10-31T01:49:01;101228.84;;;3.21;100.00
25658;BME280;13517;59.320;18.042;2022-10-31T01:51:39;101243.94;;;3.23;100.00
25658;BME280;13517;59.320;18.042;2022-10-31T01:54:10;101240.34;;;3.24;100.00
25658;BME280;13517;59.320;18.042;2022-10-31T01:56:39;101239.44;;;3.24;100.00
25658;BME280;13517;59.320;18.042;2022-10-31T01:59:09;101213.16;;;3.08;100.00
25658;BME280;13517;59.320;18.042;2022-10-31T02:01:36;101250.09;;;3.25;100.00
25658;BME280;13517;59.320;18.042;2022-10-31T02:04:03;101237.84;;;3.17;100.00
25658;BME280;13517;59.320;18.042;2022-10-31T02:06:36;101242.94;;;3.26;100.00
25658;BME280;13517;59.320;18.042;2022-10-31T02:09:05;101245.53;;;3.31;100.00
25658;BME280;13517;59.320;18.042;2022-10-31T02:11:32;101223.59;;;3.18;100.00
25658;BME280;13517;59.320;18.042;2022-10-31T02:14:01;101223.59;;;3.18;100.00
25658;BME280;13517;59.320;18.042;2022-10-31T02:16:26;101200.84;;;3.03;100.00
25658;BME280;13517;59.320;18.042;2022-10-31T02:18:52;101249.94;;;3.32;100.00
25658;BME280;13517;59.320;18.042;2022-10-31T02:21:23;101240.19;;;3.31;100.00
25658;BME280;13517;59.320;18.042;2022-10-31T02:32:21;101234.91;;;3.27;100.00
25658;BME280;13517;59.320;18.042;2022-10-31T02:35:10;101226.13;;;3.22;100.00
25658;BME280;13517;59.320;18.042;2022-10-31T02:43:12;101240.88;;;3.37;100.00
25658;BME280;13517;59.320;18.042;2022-10-31T02:45:57;101238.50;;;3.26;100.00
25658;BME280;13517;59.320;18.042;2022-10-31T02:48:29;101251.66;;;3.34;100.00
25658;BME280;13517;59.320;18.042;2022-10-31T02:50:59;101242.63;;;3.38;100.00
25658;BME280;13517;59.320;18.042;2022-10-31T02:53:25;101247.91;;;3.42;100.00
25658;BME280;13517;59.320;18.042;2022-10-31T02:56:01;101229.56;;;3.27;100.00
25658;BME280;13517;59.320;18.042;2022-10-31T02:58:31;101237.38;;;3.35;100.00
25658;BME280;13517;59.320;18.042;2022-10-31T03:06:30;101264.72;;;3.45;100.00
25658;BME280;13517;59.320;18.042;2022-10-31T03:11:28;101236.22;;;3.46;100.00
25658;BME280;13517;59.320;18.042;2022-10-31T03:14:22;101245.81;;;3.53;100.00
25658;BME280;13517;59.320;18.042;2022-10-31T03:16:50;101250.84;;;3.64;100.00
25658;BME280;13517;59.320;18.042;2022-10-31T03:19:29;101251.66;;;3.67;100.00
25658;BME280;13517;59.320;18.042;2022-10-31T03:22:17;101256.84;;;3.74;100.00
25658;BME280;13517;59.320;18.042;2022-10-31T03:24:46;101254.91;;;3.79;100.00
25658;BME280;13517;59.320;18.042;2022-10-31T03:27:15;101233.66;;;3.74;100.00
25658;BME280;13517;59.320;18.042;2022-10-31T03:29:44;101250.22;;;3.87;100.00
25658;BME280;13517;59.320;18.042;2022-10-31T03:32:16;101237.78;;;3.86;100.00
25658;BME280;13517;59.320;18.042;2022-10-31T03:34:44;101231.38;;;3.92;100.00
25658;BME280;13517;59.320;18.042;2022-10-31T03:37:15;101237.25;;;4.05;100.00
25658;BME280;13517;59.320;18.042;2022-10-31T03:39:43;101243.91;;;4.21;100.00
25658;BME280;13517;59.320;18.042;2022-10-31T03:42:15;101250.78;;;4.30;100.00
25658;BME280;13517;59.320;18.042;2022-10-31T03:44:45;101233.66;;;4.36;100.00
25658;BME280;13517;59.320;18.042;2022-10-31T03:47:12;101220.41;;;4.33;100.00
25658;BME280;13517;59.320;18.042;2022-10-31T03:49:38;101232.38;;;4.49;100.00
25658;BME280;13517;59.320;18.042;2022-10-31T03:54:59;101232.00;;;4.62;100.00
25658;BME280;13517;59.320;18.042;2022-10-31T03:57:42;101243.91;;;4.80;100.00
25658;BME280;13517;59.320;18.042;2022-10-31T04:00:12;101229.53;;;4.83;100.00
25658;BME280;13517;59.320;18.042;2022-10-31T04:02:41;101205.56;;;4.78;100.00
25658;BME280;13517;59.320;18.042;2022-10-31T04:05:09;101207.09;;;4.87;100.00
25658;BME280;13517;59.320;18.042;2022-10-31T04:07:41;101222.53;;;5.06;100.00
25658;BME280;13517;59.320;18.042;2022-10-31T04:10:11;101229.41;;;5.14;100.00
25658;BME280;13517;59.320;18.042;2022-10-31T04:12:39;101221.28;;;5.16;100.00
25658;BME280;13517;59.320;18.042;2022-10-31T04:15:07;101210.56;;;5.16;100.00
25658;BME280;13517;59.320;18.042;2022-10-31T04:17:36;101218.81;;;5.37;100.00
25658;BME280;13517;59.320;18.042;2022-10-31T04:20:03;101189.75;;;5.24;100.00
25658;BME280;13517;59.320;18.042;2022-10-31T04:22:29;101199.78;;;5.44;100.00
25658;BME280;13517;59.320;18.042;2022-10-31T04:24:54;101197.06;;;5.46;100.00
25658;BME280;13517;59.320;18.042;2022-10-31T04:27:20;101202.13;;;5.54;100.00
25658;BME280;13517;59.320;18.042;2022-10-31T04:29:45;101189.69;;;5.51;100.00
25658;BME280;13517;59.320;18.042;2022-10-31T04:32:10;101165.00;;;5.43;100.00
25658;BME280;13517;59.320;18.042;2022-10-31T04:34:36;101196.41;;;5.63;100.00
25658;BME280;13517;59.320;18.042;2022-10-31T04:37:01;101172.47;;;5.58;100.00
25658;BME280;13517;59.320;18.042;2022-10-31T04:39:26;101196.97;;;5.73;100.00
25658;BME280;13517;59.320;18.042;2022-10-31T04:41:52;101195.00;;;5.78;100.00
25658;BME280;13517;59.320;18.042;2022-10-31T04:44:17;101199.09;;;5.89;100.00
25658;BME280;13517;59.320;18.042;2022-10-31T04:46:43;101186.59;;;5.88;100.00
25658;BME280;13517;59.320;18.042;2022-10-31T04:49:08;101189.94;;;5.94;100.00
25658;BME280;13517;59.320;18.042;2022-10-31T04:51:33;101189.88;;;5.96;100.00
25658;BME280;13517;59.320;18.042;2022-10-31T04:53:59;101194.91;;;6.05;100.00
25658;BME280;13517;59.320;18.042;2022-10-31T04:56:24;101202.66;;;6.13;100.00
25658;BME280;13517;59.320;18.042;2022-10-31T04:58:50;101189.41;;;6.08;100.00
25658;BME280;13517;59.320;18.042;2022-10-31T05:01:15;101160.44;;;5.94;100.00
25658;BME280;13517;59.320;18.042;2022-10-31T05:03:40;101199.44;;;6.27;100.00
25658;BME280;13517;59.320;18.042;2022-10-31T05:06:06;101195.72;;;6.31;100.00
25658;BME280;13517;59.320;18.042;2022-10-31T05:08:32;101171.25;;;6.17;100.00
25658;BME280;13517;59.320;18.042;2022-10-31T05:11:01;101157.00;;;6.15;100.00
25658;BME280;13517;59.320;18.042;2022-10-31T05:13:27;101174.38;;;6.28;100.00
25658;BME280;13517;59.320;18.042;2022-10-31T05:15:52;101175.06;;;6.33;100.00
25658;BME280;13517;59.320;18.042;2022-10-31T05:18:18;101176.75;;;6.36;100.00
25658;BME280;13517;59.320;18.042;2022-10-31T05:20:43;101155.72;;;6.25;100.00
25658;BME280;13517;59.320;18.042;2022-10-31T05:23:09;101186.16;;;6.46;100.00
25658;BME280;13517;59.320;18.042;2022-10-31T05:25:34;101152.91;;;6.28;100.00
25658;BME280;13517;59.320;18.042;2022-10-31T05:28:00;101177.00;;;6.52;100.00
25658;BME280;13517;59.320;18.042;2022-10-31T05:30:28;101173.41;;;6.53;100.00
25658;BME280;13517;59.320;18.042;2022-10-31T05:32:54;101185.63;;;6.60;100.00
25658;BME280;13517;59.320;18.042;2022-10-31T05:35:26;101183.59;;;6.65;100.00
25658;BME280;13517;59.320;18.042;2022-10-31T05:37:52;101181.06;;;6.62;100.00
25658;BME280;13517;59.320;18.042;2022-10-31T05:40:18;101191.59;;;6.67;100.00
25658;BME280;13517;59.320;18.042;2022-10-31T05:42:45;101145.06;;;6.46;100.00
25658;BME280;13517;59.320;18.042;2022-10-31T05:45:15;101184.19;;;6.74;100.00
25658;BME280;13517;59.320;18.042;2022-10-31T05:47:41;101157.78;;;6.63;100.00
25658;BME280;13517;59.320;18.042;2022-10-31T05:50:07;101176.00;;;6.77;100.00
25658;BME280;13517;59.320;18.042;2022-10-31T05:52:33;101140.28;;;6.52;100.00
25658;BME280;13517;59.320;18.042;2022-10-31T05:54:59;101183.06;;;6.79;100.00
25658;BME280;13517;59.320;18.042;2022-10-31T05:57:24;101163.75;;;6.70;100.00
25658;BME280;13517;59.320;18.042;2022-10-31T05:59:49;101180.38;;;6.79;100.00
25658;BME280;13517;59.320;18.042;2022-10-31T06:02:18;101181.91;;;6.85;100.00
25658;BME280;13517;59.320;18.042;2022-10-31T06:04:44;101180.03;;;6.87;100.00
25658;BME280;13517;59.320;18.042;2022-10-31T06:07:09;101157.66;;;6.66;100.00
25658;BME280;13517;59.320;18.042;2022-10-31T06:09:35;101180.03;;;6.87;100.00
25658;BME280;13517;59.320;18.042;2022-10-31T06:12:00;101170.22;;;6.86;100.00
25658;BME280;13517;59.320;18.042;2022-10-31T06:14:25;101174.53;;;6.90;100.00
25658;BME280;13517;59.320;18.042;2022-10-31T06:16:51;101181.25;;;7.01;100.00
25658;BME280;13517;59.320;18.042;2022-10-31T06:19:16;101144.47;;;6.82;100.00
25658;BME280;13517;59.320;18.042;2022-10-31T06:21:42;101153.16;;;6.87;100.00
25658;BME280;13517;59.320;18.042;2022-10-31T06:24:07;101195.06;;;7.14;100.00
25658;BME280;13517;59.320;18.042;2022-10-31T06:26:32;101203.03;;;7.15;100.00
25658;BME280;13517;59.320;18.042;2022-10-31T06:28:58;101178.31;;;7.07;100.00
25658;BME280;13517;59.320;18.042;2022-10-31T06:31:23;101201.09;;;7.19;100.00
25658;BME280;13517;59.320;18.042;2022-10-31T06:33:48;101168.31;;;7.11;100.00
25658;BME280;13517;59.320;18.042;2022-10-31T06:36:14;101192.78;;;7.25;100.00
25658;BME280;13517;59.320;18.042;2022-10-31T06:38:39;101176.72;;;7.24;100.00
25658;BME280;13517;59.320;18.042;2022-10-31T06:41:05;101194.88;;;7.39;100.00
25658;BME280;13517;59.320;18.042;2022-10-31T06:43:31;101188.59;;;7.39;100.00
25658;BME280;13517;59.320;18.042;2022-10-31T06:45:57;101157.84;;;7.25;100.00
25658;BME280;13517;59.320;18.042;2022-10-31T06:48:23;101201.47;;;7.53;100.00
25658;BME280;13517;59.320;18.042;2022-10-31T06:50:48;101188.22;;;7.48;100.00
25658;BME280;13517;59.320;18.042;2022-10-31T06:53:14;101187.19;;;7.50;100.00
25658;BME280;13517;59.320;18.042;2022-10-31T06:55:40;101188.81;;;7.55;100.00
25658;BME280;13517;59.320;18.042;2022-10-31T06:58:06;101193.91;;;7.61;100.00
25658;BME280;13517;59.320;18.042;2022-10-31T07:00:33;101177.59;;;7.45;100.00
25658;BME280;13517;59.320;18.042;2022-10-31T07:03:00;101205.03;;;7.72;100.00
25658;BME280;13517;59.320;18.042;2022-10-31T07:05:27;101208.47;;;7.76;100.00
25658;BME280;13517;59.320;18.042;2022-10-31T07:07:58;101208.41;;;7.77;100.00
25658;BME280;13517;59.320;18.042;2022-10-31T07:10:26;101195.97;;;7.75;100.00
25658;BME280;13517;59.320;18.042;2022-10-31T07:12:56;101214.59;;;7.80;100.00
25658;BME280;13517;59.320;18.042;2022-10-31T07:15:23;101196.13;;;7.72;100.00
25658;BME280;13517;59.320;18.042;2022-10-31T07:17:49;101208.91;;;7.86;100.00
25658;BME280;13517;59.320;18.042;2022-10-31T07:20:15;101188.84;;;7.74;100.00
25658;BME280;13517;59.320;18.042;2022-10-31T07:22:40;101170.72;;;7.58;100.00
25658;BME280;13517;59.320;18.042;2022-10-31T07:25:06;101196.56;;;7.82;100.00
25658;BME280;13517;59.320;18.042;2022-10-31T07:27:38;101182.47;;;7.76;100.00
25658;BME280;13517;59.320;18.042;2022-10-31T07:30:05;101155.25;;;7.63;100.00
25658;BME280;13517;59.320;18.042;2022-10-31T07:32:41;101195.63;;;7.83;100.00
25658;BME280;13517;59.320;18.042;2022-10-31T07:35:08;101203.53;;;7.86;100.00
25658;BME280;13517;59.320;18.042;2022-10-31T07:37:34;101209.38;;;7.96;100.00
25658;BME280;13517;59.320;18.042;2022-10-31T07:39:59;101197.03;;;7.92;100.00
25658;BME280;13517;59.320;18.042;2022-10-31T07:42:25;101213.63;;;8.01;100.00
25658;BME280;13517;59.320;18.042;2022-10-31T07:44:50;101184.66;;;7.87;100.00
25658;BME280;13517;59.320;18.042;2022-10-31T07:47:16;101189.97;;;7.89;100.00
25658;BME280;13517;59.320;18.042;2022-10-31T07:49:41;101187.22;;;7.90;100.00
25658;BME280;13517;59.320;18.042;2022-10-31T07:52:06;101203.66;;;8.03;100.00
25658;BME280;13517;59.320;18.042;2022-10-31T07:54:32;101202.56;;;8.08;100.00
25658;BME280;13517;59.320;18.042;2022-10-31T07:56:57;101172.88;;;7.90;100.00
25658;BME280;13517;59.320;18.042;2022-10-31T07:59:23;101203.22;;;8.13;100.00
25658;BME280;13517;59.320;18.042;2022-10-31T08:01:48;101216.31;;;8.21;100.00
25658;BME280;13517;59.320;18.042;2022-10-31T08:04:13;101173.78;;;8.10;100.00
25658;BME280;13517;59.320;18.042;2022-10-31T08:06:39;101201.69;;;8.26;100.00
25658;BME280;13517;59.320;18.042;2022-10-31T08:09:04;101189.47;;;8.19;100.00
25658;BME280;13517;59.320;18.042;2022-10-31T08:11:29;101177.84;;;8.18;100.00
25658;BME280;13517;59.320;18.042;2022-10-31T08:13:55;101203.38;;;8.29;100.00
25658;BME280;13517;59.320;18.042;2022-10-31T08:16:20;101211.94;;;8.37;100.00
25658;BME280;13517;59.320;18.042;2022-10-31T08:18:45;101218.78;;;8.44;100.00
25658;BME280;13517;59.320;18.042;2022-10-31T08:21:11;101213.06;;;8.52;100.00
25658;BME280;13517;59.320;18.042;2022-10-31T08:23:36;101194.50;;;8.46;100.00
25658;BME280;13517;59.320;18.042;2022-10-31T08:26:02;101184.72;;;8.43;100.00
25658;BME280;13517;59.320;18.042;2022-10-31T08:28:27;101217.16;;;8.61;100.00
25658;BME280;13517;59.320;18.042;2022-10-31T08:30:52;101181.03;;;8.46;100.00
25658;BME280;13517;59.320;18.042;2022-10-31T08:33:18;101189.63;;;8.54;100.00
25658;BME280;13517;59.320;18.042;2022-10-31T08:35:44;101210.41;;;8.70;100.00
25658;BME280;13517;59.320;18.042;2022-10-31T08:38:11;101225.63;;;8.71;100.00
25658;BME280;13517;59.320;18.042;2022-10-31T08:40:37;101218.38;;;8.73;100.00
25658;BME280;13517;59.320;18.042;2022-10-31T08:43:05;101200.09;;;8.61;100.00
25658;BME280;13517;59.320;18.042;2022-10-31T08:45:32;101199.81;;;8.67;100.00
25658;BME280;13517;59.320;18.042;2022-10-31T08:48:02;101214.78;;;8.72;100.00
25658;BME280;13517;59.320;18.042;2022-10-31T08:50:30;101210.91;;;8.78;100.00
25658;BME280;13517;59.320;18.042;2022-10-31T08:53:20;101214.41;;;8.80;100.00
25658;BME280;13517;59.320;18.042;2022-10-31T08:55:46;101203.72;;;8.79;100.00
25658;BME280;13517;59.320;18.042;2022-10-31T08:58:14;101223.84;;;8.89;100.00
25658;BME280;13517;59.320;18.042;2022-10-31T09:00:40;101178.09;;;8.70;100.00
25658;BME280;13517;59.320;18.042;2022-10-31T09:03:13;101175.28;;;8.73;100.00
25658;BME280;13517;59.320;18.042;2022-10-31T09:05:39;101197.53;;;8.94;100.00
25658;BME280;13517;59.320;18.042;2022-10-31T09:08:05;101188.63;;;8.94;100.00
25658;BME280;13517;59.320;18.042;2022-10-31T09:10:33;101212.22;;;9.06;100.00
25658;BME280;13517;59.320;18.042;2022-10-31T09:13:04;101216.34;;;9.13;100.00
25658;BME280;13517;59.320;18.042;2022-10-31T09:15:32;101204.00;;;9.09;100.00
25658;BME280;13517;59.320;18.042;2022-10-31T09:17:58;101201.13;;;9.12;100.00
25658;BME280;13517;59.320;18.042;2022-10-31T09:20:23;101173.38;;;8.93;100.00
25658;BME280;13517;59.320;18.042;2022-10-31T09:22:58;101195.56;;;8.98;100.00
25658;BME280;13517;59.320;18.042;2022-10-31T09:25:25;101237.78;;;9.17;100.00
25658;BME280;13517;59.320;18.042;2022-10-31T09:27:50;101210.56;;;9.04;100.00
25658;BME280;13517;59.320;18.042;2022-10-31T09:30:16;101234.91;;;9.20;100.00
25658;BME280;13517;59.320;18.042;2022-10-31T09:32:41;101236.44;;;9.25;100.00
25658;BME280;13517;59.320;18.042;2022-10-31T09:35:07;101208.97;;;9.17;100.00
25658;BME280;13517;59.320;18.042;2022-10-31T09:37:33;101234.13;;;9.35;100.00
25658;BME280;13517;59.320;18.042;2022-10-31T09:39:58;101206.69;;;9.27;100.00
25658;BME280;13517;59.320;18.042;2022-10-31T09:45:02;101228.09;;;9.48;100.00
25658;BME280;13517;59.320;18.042;2022-10-31T09:47:45;101208.75;;;9.39;100.00
25658;BME280;13517;59.320;18.042;2022-10-31T09:50:18;101186.28;;;9.39;100.00
25658;BME280;13517;59.320;18.042;2022-10-31T09:53:10;101215.78;;;9.60;100.00
25658;BME280;13517;59.320;18.042;2022-10-31T09:55:40;101195.97;;;9.61;100.00
25658;BME280;13517;59.320;18.042;2022-10-31T09:58:15;101222.97;;;9.77;100.00
25658;BME280;13517;59.320;18.042;2022-10-31T10:00:43;101212.03;;;9.80;100.00
25658;BME280;13517;59.320;18.042;2022-10-31T10:03:39;101187.63;;;9.65;100.00
25658;BME280;13517;59.320;18.042;2022-10-31T10:06:17;101231.69;;;10.00;100.00
25658;BME280;13517;59.320;18.042;2022-10-31T10:08:44;101217.13;;;10.02;100.00
25658;BME280;13517;59.320;18.042;2022-10-31T10:17:02;101216.78;;;10.08;100.00
25658;BME280;13517;59.320;18.042;2022-10-31T10:22:12;101220.13;;;10.14;100.00
25658;BME280;13517;59.320;18.042;2022-10-31T10:25:16;101218.44;;;10.11;100.00
25658;BME280;13517;59.320;18.042;2022-10-31T10:30:56;101210.34;;;10.11;100.00
25658;BME280;13517;59.320;18.042;2022-10-31T10:33:28;101222.88;;;10.12;100.00
25658;BME280;13517;59.320;18.042;2022-10-31T10:35:59;101207.91;;;10.06;100.00
25658;BME280;13517;59.320;18.042;2022-10-31T10:41:16;101194.22;;;9.93;100.00
25658;BME280;13517;59.320;18.042;2022-10-31T10:43:42;101204.78;;;9.98;100.00
25658;BME280;13517;59.320;18.042;2022-10-31T10:51:56;101179.16;;;9.89;100.00
25658;BME280;13517;59.320;18.042;2022-10-31T10:59:36;101226.78;;;10.24;100.00
25658;BME280;13517;59.320;18.042;2022-10-31T11:02:03;101228.25;;;10.30;100.00
25658;BME280;13517;59.320;18.042;2022-10-31T11:04:35;101217.53;;;10.28;100.00
25658;BME280;13517;59.320;18.042;2022-10-31T11:07:11;101223.47;;;10.35;100.00
25658;BME280;13517;59.320;18.042;2022-10-31T11:09:37;101232.91;;;10.44;100.00
25658;BME280;13517;59.320;18.042;2022-10-31T11:12:26;101222.78;;;10.47;100.00
25658;BME280;13517;59.320;18.042;2022-10-31T11:14:57;101219.75;;;10.54;100.00
25658;BME280;13517;59.320;18.042;2022-10-31T11:17:40;101220.28;;;10.60;100.00
25658;BME280;13517;59.320;18.042;2022-10-31T11:22:37;101233.59;;;10.80;100.00
25658;BME280;13517;59.320;18.042;2022-10-31T11:25:22;101233.59;;;10.80;100.00
25658;BME280;13517;59.320;18.042;2022-10-31T11:28:07;101235.34;;;10.81;100.00
25658;BME280;13517;59.320;18.042;2022-10-31T11:30:57;101236.03;;;10.84;100.00
25658;BME280;13517;59.320;18.042;2022-10-31T11:33:32;101231.25;;;10.89;100.00
25658;BME280;13517;59.320;18.042;2022-10-31T11:36:00;101237.16;;;10.96;100.00
25658;BME280;13517;59.320;18.042;2022-10-31T11:38:34;101240.38;;;11.03;100.00
25658;BME280;13517;59.320;18.042;2022-10-31T11:43:36;101221.66;;;11.14;100.00
25658;BME280;13517;59.320;18.042;2022-10-31T11:46:32;101210.88;;;10.98;100.00
25658;BME280;13517;59.320;18.042;2022-10-31T11:48:59;101217.69;;;11.06;100.00
25658;BME280;13517;59.320;18.042;2022-10-31T11:51:31;101238.94;;;11.12;100.00
25658;BME280;13517;59.320;18.042;2022-10-31T11:53:59;101237.25;;;11.25;100.00
25658;BME280;13517;59.320;18.042;2022-10-31T11:56:25;101236.81;;;11.33;100.00
25658;BME280;13517;59.320;18.042;2022-10-31T11:59:14;101219.53;;;11.36;100.00
25658;BME280;13517;59.320;18.042;2022-10-31T12:01:47;101225.75;;;11.52;100.00
25658;BME280;13517;59.320;18.042;2022-10-31T12:04:13;101206.81;;;11.52;100.00
25658;BME280;13517;59.320;18.042;2022-10-31T12:06:40;101212.03;;;11.55;100.00
25658;BME280;13517;59.320;18.042;2022-10-31T12:09:27;101210.28;;;11.54;100.00
25658;BME280;13517;59.320;18.042;2022-10-31T12:17:22;101214.84;;;11.54;100.00
25658;BME280;13517;59.320;18.042;2022-10-31T12:30:40;101219.38;;;11.68;100.00
25658;BME280;13517;59.320;18.042;2022-10-31T12:39:07;101218.03;;;11.75;100.00
25658;BME280;13517;59.320;18.042;2022-10-31T12:42:09;101217.94;;;11.77;100.00
25658;BME280;13517;59.320;18.042;2022-10-31T12:47:44;101206.28;;;11.91;100.00
25658;BME280;13517;59.320;18.042;2022-10-31T12:58:54;101203.59;;;12.05;100.00
25658;BME280;13517;59.320;18.042;2022-10-31T13:04:19;101180.13;;;11.90;100.00
25658;BME280;13517;59.320;18.042;2022-10-31T13:06:53;101191.97;;;12.03;100.00
25658;BME280;13517;59.320;18.042;2022-10-31T13:09:26;101196.41;;;12.04;100.00
25658;BME280;13517;59.320;18.042;2022-10-31T13:12:07;101191.56;;;11.95;100.00
25658;BME280;13517;59.320;18.042;2022-10-31T13:14:36;101202.81;;;12.03;100.00
25658;BME280;13517;59.320;18.042;2022-10-31T13:17:05;101169.03;;;11.80;100.00
25658;BME280;13517;59.320;18.042;2022-10-31T13:19:36;101207.34;;;12.03;100.00
25658;BME280;13517;59.320;18.042;2022-10-31T13:22:07;101204.72;;;12.01;100.00
25658;BME280;13517;59.320;18.042;2022-10-31T13:27:33;101204.91;;;11.98;100.00
25658;BME280;13517;59.320;18.042;2022-10-31T13:30:13;101203.38;;;11.94;100.00
25658;BME280;13517;59.320;18.042;2022-10-31T13:32:48;101205.09;;;11.95;100.00
25658;BME280;13517;59.320;18.042;2022-10-31T13:35:29;101204.63;;;11.88;100.00
25658;BME280;13517;59.320;18.042;2022-10-31T13:40:59;101211.00;;;11.87;100.00
25658;BME280;13517;59.320;18.042;2022-10-31T13:47:00;101193.50;;;11.78;100.00
25658;BME280;13517;59.320;18.042;2022-10-31T13:49:35;101210.22;;;11.85;100.00
25658;BME280;13517;59.320;18.042;2022-10-31T13:52:13;101202.38;;;11.80;100.00
25658;BME280;13517;59.320;18.042;2022-10-31T13:54:42;101200.44;;;11.82;100.00
25658;BME280;13517;59.320;18.042;2022-10-31T13:57:35;101197.34;;;11.74;100.00
25658;BME280;13517;59.320;18.042;2022-10-31T14:02:48;101201.41;;;11.81;100.00
25658;BME280;13517;59.320;18.042;2022-10-31T14:05:33;101199.00;;;11.77;100.00
25658;BME280;13517;59.320;18.042;2022-10-31T14:08:01;101194.28;;;11.80;100.00
25658;BME280;13517;59.320;18.042;2022-10-31T14:13:15;101209.91;;;11.75;100.00
25658;BME280;13517;59.320;18.042;2022-10-31T14:15:52;101196.97;;;11.80;100.00
25658;BME280;13517;59.320;18.042;2022-10-31T14:18:37;101202.75;;;11.74;100.00
25658;BME280;13517;59.320;18.042;2022-10-31T14:21:42;101201.03;;;11.73;100.00
25658;BME280;13517;59.320;18.042;2022-10-31T14:26:52;101193.69;;;11.75;100.00
25658;BME280;13517;59.320;18.042;2022-10-31T14:29:23;101202.00;;;11.72;100.00
25658;BME280;13517;59.320;18.042;2022-10-31T14:34:29;101194.84;;;11.71;100.00
25658;BME280;13517;59.320;18.042;2022-10-31T14:40:22;101189.06;;;11.63;100.00
25658;BME280;13517;59.320;18.042;2022-10-31T14:45:48;101184.50;;;11.63;100.00
25658;BME280;13517;59.320;18.042;2022-10-31T14:50:54;101163.28;;;11.41;100.00
25658;BME280;13517;59.320;18.042;2022-10-31T14:53:33;101157.41;;;11.34;100.00